Terminal Aerodrome Forecast
Issued by NWS Chicago, IL

Home | Current Version | Previous Version | Graphics & Text | Print | Product List | Glossary On
Versions: 1 2 3 4 5 6 7 8 9 10 11 12 13 14 15 16 17 18 19 20 21 22 23 24 25 26 27
000
FTUS43 KLOT 010255 AAA
TAFRFD
TAF AMD
KRFD 010255Z 0103/0124 07012G18KT 4SM -RA BR OVC009
     FM010400 05012KT 3SM -RADZ BR OVC007
     FM010800 04011KT 4SM BR OVC005
     FM011500 04010KT 4SM BR VCSH OVC008
     FM012100 04012G18KT 5SM -SHRA OVC012=

USA.gov is the U.S. government's official web portal to all federal, state and local government web resources and services.